sensor_id;sensor_type;location;lat;lon;timestamp;pressure;altitude;pressure_sealevel;temperature;humidity
20013;BME280;10167;42.852;23.042;2023-04-05T00:02:03;94421.63;;;0.83;100.00
20013;BME280;10167;42.852;23.042;2023-04-05T00:04:33;94406.19;;;0.81;100.00
20013;BME280;10167;42.852;23.042;2023-04-05T00:07:02;94409.75;;;0.73;100.00
20013;BME280;10167;42.852;23.042;2023-04-05T00:09:34;94406.81;;;0.83;100.00
20013;BME280;10167;42.852;23.042;2023-04-05T00:12:06;94405.47;;;0.66;100.00
20013;BME280;10167;42.852;23.042;2023-04-05T00:14:35;94407.91;;;0.67;100.00
20013;BME280;10167;42.852;23.042;2023-04-05T00:17:04;94394.66;;;0.69;100.00
20013;BME280;10167;42.852;23.042;2023-04-05T00:19:35;94393.97;;;0.82;100.00
20013;BME280;10167;42.852;23.042;2023-04-05T00:22:06;94393.16;;;0.81;100.00
20013;BME280;10167;42.852;23.042;2023-04-05T00:24:37;94390.31;;;0.76;100.00
20013;BME280;10167;42.852;23.042;2023-04-05T00:27:09;94383.69;;;0.73;100.00
20013;BME280;10167;42.852;23.042;2023-04-05T00:29:38;94395.66;;;0.68;100.00
20013;BME280;10167;42.852;23.042;2023-04-05T00:32:07;94386.28;;;0.73;100.00
20013;BME280;10167;42.852;23.042;2023-04-05T00:34:37;94387.44;;;0.92;100.00
20013;BME280;10167;42.852;23.042;2023-04-05T00:37:06;94388.41;;;0.91;100.00
20013;BME280;10167;42.852;23.042;2023-04-05T00:39:35;94390.63;;;0.88;100.00
20013;BME280;10167;42.852;23.042;2023-04-05T00:42:05;94396.25;;;0.91;100.00
20013;BME280;10167;42.852;23.042;2023-04-05T00:44:35;94394.31;;;1.00;100.00
20013;BME280;10167;42.852;23.042;2023-04-05T00:47:05;94398.00;;;0.84;100.00
20013;BME280;10167;42.852;23.042;2023-04-05T00:49:35;94393.69;;;0.98;100.00
20013;BME280;10167;42.852;23.042;2023-04-05T00:52:05;94405.50;;;0.94;100.00
20013;BME280;10167;42.852;23.042;2023-04-05T00:54:34;94401.66;;;0.90;100.00
20013;BME280;10167;42.852;23.042;2023-04-05T00:57:05;94401.94;;;1.01;100.00
20013;BME280;10167;42.852;23.042;2023-04-05T00:59:36;94391.75;;;1.06;100.00
20013;BME280;10167;42.852;23.042;2023-04-05T01:02:10;94389.66;;;0.95;100.00
20013;BME280;10167;42.852;23.042;2023-04-05T01:04:43;94401.50;;;0.98;100.00
20013;BME280;10167;42.852;23.042;2023-04-05T01:07:24;94395.59;;;0.83;100.00
20013;BME280;10167;42.852;23.042;2023-04-05T01:09:55;94395.59;;;0.83;100.00
20013;BME280;10167;42.852;23.042;2023-04-05T01:12:27;94406.25;;;0.88;100.00
20013;BME280;10167;42.852;23.042;2023-04-05T01:15:01;94398.56;;;0.80;100.00
20013;BME280;10167;42.852;23.042;2023-04-05T01:17:30;94409.59;;;0.82;100.00
20013;BME280;10167;42.852;23.042;2023-04-05T01:20:05;94404.81;;;0.85;100.00
20013;BME280;10167;42.852;23.042;2023-04-05T01:22:55;94409.91;;;0.93;100.00
20013;BME280;10167;42.852;23.042;2023-04-05T01:25:45;94412.56;;;1.00;100.00
20013;BME280;10167;42.852;23.042;2023-04-05T01:28:48;94410.88;;;0.92;100.00
20013;BME280;10167;42.852;23.042;2023-04-05T01:31:31;94420.47;;;0.85;100.00
20013;BME280;10167;42.852;23.042;2023-04-05T01:34:11;94409.41;;;0.83;100.00
20013;BME280;10167;42.852;23.042;2023-04-05T01:36:44;94410.28;;;0.90;100.00
20013;BME280;10167;42.852;23.042;2023-04-05T01:39:19;94416.69;;;0.88;100.00
20013;BME280;10167;42.852;23.042;2023-04-05T01:41:49;94414.69;;;0.90;100.00
20013;BME280;10167;42.852;23.042;2023-04-05T01:44:18;94415.44;;;0.84;100.00
20013;BME280;10167;42.852;23.042;2023-04-05T01:46:48;94410.47;;;0.89;100.00
20013;BME280;10167;42.852;23.042;2023-04-05T01:49:18;94422.56;;;0.96;100.00
20013;BME280;10167;42.852;23.042;2023-04-05T01:51:47;94413.75;;;0.97;100.00
20013;BME280;10167;42.852;23.042;2023-04-05T01:54:16;94423.56;;;0.95;100.00
20013;BME280;10167;42.852;23.042;2023-04-05T01:56:45;94425.81;;;1.05;100.00
20013;BME280;10167;42.852;23.042;2023-04-05T01:59:15;94430.41;;;1.03;100.00
20013;BME280;10167;42.852;23.042;2023-04-05T02:01:44;94424.03;;;1.05;100.00
20013;BME280;10167;42.852;23.042;2023-04-05T02:04:14;94434.72;;;1.17;100.00
20013;BME280;10167;42.852;23.042;2023-04-05T02:06:43;94425.91;;;1.18;100.00
20013;BME280;10167;42.852;23.042;2023-04-05T02:09:12;94427.91;;;1.16;100.00
20013;BME280;10167;42.852;23.042;2023-04-05T02:11:44;94426.59;;;0.99;100.00
20013;BME280;10167;42.852;23.042;2023-04-05T02:14:13;94424.38;;;1.02;100.00
20013;BME280;10167;42.852;23.042;2023-04-05T02:17:02;94438.53;;;1.15;100.00
20013;BME280;10167;42.852;23.042;2023-04-05T02:19:33;94432.09;;;1.11;100.00
20013;BME280;10167;42.852;23.042;2023-04-05T02:22:07;94424.78;;;0.99;100.00
20013;BME280;10167;42.852;23.042;2023-04-05T02:24:36;94429.19;;;0.99;100.00
20013;BME280;10167;42.852;23.042;2023-04-05T02:27:06;94431.84;;;1.05;100.00
20013;BME280;10167;42.852;23.042;2023-04-05T02:29:35;94424.63;;;1.07;100.00
20013;BME280;10167;42.852;23.042;2023-04-05T02:32:04;94427.63;;;1.04;100.00
20013;BME280;10167;42.852;23.042;2023-04-05T02:34:35;94429.22;;;1.05;100.00
20013;BME280;10167;42.852;23.042;2023-04-05T02:37:07;94432.91;;;1.11;100.00
20013;BME280;10167;42.852;23.042;2023-04-05T02:39:36;94427.06;;;1.09;100.00
20013;BME280;10167;42.852;23.042;2023-04-05T02:42:06;94427.78;;;0.96;100.00
20013;BME280;10167;42.852;23.042;2023-04-05T02:44:35;94419.31;;;0.94;100.00
20013;BME280;10167;42.852;23.042;2023-04-05T02:47:04;94421.78;;;1.02;100.00
20013;BME280;10167;42.852;23.042;2023-04-05T02:49:35;94418.78;;;0.99;100.00
20013;BME280;10167;42.852;23.042;2023-04-05T02:52:06;94422.66;;;1.09;100.00
20013;BME280;10167;42.852;23.042;2023-04-05T02:54:37;94420.06;;;1.09;100.00
20013;BME280;10167;42.852;23.042;2023-04-05T02:57:06;94419.41;;;1.01;100.00
20013;BME280;10167;42.852;23.042;2023-04-05T02:59:45;94421.78;;;1.02;100.00
20013;BME280;10167;42.852;23.042;2023-04-05T03:02:14;94412.59;;;1.06;100.00
20013;BME280;10167;42.852;23.042;2023-04-05T03:04:45;94415.91;;;0.94;100.00
20013;BME280;10167;42.852;23.042;2023-04-05T03:07:16;94411.94;;;0.98;100.00
20013;BME280;10167;42.852;23.042;2023-04-05T03:09:47;94409.09;;;0.93;100.00
20013;BME280;10167;42.852;23.042;2023-04-05T03:12:17;94412.56;;;1.00;100.00
20013;BME280;10167;42.852;23.042;2023-04-05T03:14:46;94417.38;;;1.03;100.00
20013;BME280;10167;42.852;23.042;2023-04-05T03:17:20;94423.28;;;1.12;100.00
20013;BME280;10167;42.852;23.042;2023-04-05T03:19:59;94414.78;;;1.03;100.00
20013;BME280;10167;42.852;23.042;2023-04-05T03:22:36;94418.59;;;1.00;100.00
20013;BME280;10167;42.852;23.042;2023-04-05T03:25:07;94410.63;;;1.08;100.00
20013;BME280;10167;42.852;23.042;2023-04-05T03:27:45;94416.63;;;1.09;100.00
20013;BME280;10167;42.852;23.042;2023-04-05T03:30:17;94414.88;;;1.16;100.00
20013;BME280;10167;42.852;23.042;2023-04-05T03:32:55;94413.06;;;1.17;100.00
20013;BME280;10167;42.852;23.042;2023-04-05T03:35:44;94416.28;;;1.19;100.00
20013;BME280;10167;42.852;23.042;2023-04-05T03:38:17;94417.75;;;1.28;100.00
20013;BME280;10167;42.852;23.042;2023-04-05T03:41:14;94419.97;;;1.31;100.00
20013;BME280;10167;42.852;23.042;2023-04-05T03:43:44;94416.53;;;1.24;100.00
20013;BME280;10167;42.852;23.042;2023-04-05T03:46:15;94428.56;;;1.25;100.00
20013;BME280;10167;42.852;23.042;2023-04-05T03:48:45;94429.97;;;1.21;100.00
20013;BME280;10167;42.852;23.042;2023-04-05T03:51:16;94438.41;;;1.23;100.00
20013;BME280;10167;42.852;23.042;2023-04-05T03:53:50;94435.19;;;1.27;100.00
20013;BME280;10167;42.852;23.042;2023-04-05T03:56:23;94438.63;;;1.28;100.00
20013;BME280;10167;42.852;23.042;2023-04-05T03:58:52;94428.16;;;1.21;100.00
20013;BME280;10167;42.852;23.042;2023-04-05T04:01:25;94438.25;;;1.31;100.00
20013;BME280;10167;42.852;23.042;2023-04-05T04:03:54;94444.41;;;1.23;100.00
20013;BME280;10167;42.852;23.042;2023-04-05T04:06:25;94441.00;;;1.23;100.00
20013;BME280;10167;42.852;23.042;2023-04-05T04:08:57;94450.03;;;1.27;100.00
20013;BME280;10167;42.852;23.042;2023-04-05T04:11:28;94457.06;;;1.26;100.00
20013;BME280;10167;42.852;23.042;2023-04-05T04:14:00;94451.16;;;1.11;100.00
20013;BME280;10167;42.852;23.042;2023-04-05T04:16:55;94466.22;;;1.16;100.00
20013;BME280;10167;42.852;23.042;2023-04-05T04:19:47;94455.13;;;1.07;100.00
20013;BME280;10167;42.852;23.042;2023-04-05T04:22:44;94458.38;;;1.16;100.00
20013;BME280;10167;42.852;23.042;2023-04-05T04:25:41;94459.72;;;1.05;100.00
20013;BME280;10167;42.852;23.042;2023-04-05T04:28:33;94458.72;;;1.06;100.00
20013;BME280;10167;42.852;23.042;2023-04-05T04:31:37;94461.16;;;1.07;100.00
20013;BME280;10167;42.852;23.042;2023-04-05T04:34:35;94461.00;;;1.16;100.00
20013;BME280;10167;42.852;23.042;2023-04-05T04:37:27;94452.19;;;1.17;100.00
20013;BME280;10167;42.852;23.042;2023-04-05T04:40:23;94466.47;;;1.21;100.00
20013;BME280;10167;42.852;23.042;2023-04-05T04:43:16;94465.59;;;1.14;100.00
20013;BME280;10167;42.852;23.042;2023-04-05T04:46:03;94466.34;;;1.07;100.00
20013;BME280;10167;42.852;23.042;2023-04-05T04:49:00;94462.13;;;1.06;100.00
20013;BME280;10167;42.852;23.042;2023-04-05T04:51:32;94467.97;;;1.08;100.00
20013;BME280;10167;42.852;23.042;2023-04-05T04:54:02;94463.91;;;0.99;100.00
20013;BME280;10167;42.852;23.042;2023-04-05T04:56:34;94472.09;;;1.24;100.00
20013;BME280;10167;42.852;23.042;2023-04-05T04:59:03;94473.03;;;1.17;100.00
20013;BME280;10167;42.852;23.042;2023-04-05T05:01:32;94464.75;;;1.06;100.00
20013;BME280;10167;42.852;23.042;2023-04-05T05:04:05;94463.84;;;1.21;100.00
20013;BME280;10167;42.852;23.042;2023-04-05T05:06:37;94475.13;;;1.28;100.00
20013;BME280;10167;42.852;23.042;2023-04-05T05:09:06;94468.06;;;1.22;100.00
20013;BME280;10167;42.852;23.042;2023-04-05T05:11:46;94473.81;;;1.11;100.00
20013;BME280;10167;42.852;23.042;2023-04-05T05:14:15;94476.41;;;1.11;100.00
20013;BME280;10167;42.852;23.042;2023-04-05T05:16:44;94475.31;;;1.26;100.00
20013;BME280;10167;42.852;23.042;2023-04-05T05:19:13;94474.38;;;1.34;100.00
20013;BME280;10167;42.852;23.042;2023-04-05T05:21:49;94475.56;;;1.31;100.00
20013;BME280;10167;42.852;23.042;2023-04-05T05:24:19;94480.25;;;1.42;100.00
20013;BME280;10167;42.852;23.042;2023-04-05T05:26:50;94480.69;;;1.46;100.00
20013;BME280;10167;42.852;23.042;2023-04-05T05:29:19;94480.81;;;1.38;100.00
20013;BME280;10167;42.852;23.042;2023-04-05T05:31:50;94478.22;;;1.38;100.00
20013;BME280;10167;42.852;23.042;2023-04-05T05:34:19;94481.97;;;1.29;100.00
20013;BME280;10167;42.852;23.042;2023-04-05T05:36:51;94485.13;;;1.52;100.00
20013;BME280;10167;42.852;23.042;2023-04-05T05:39:21;94487.59;;;1.60;100.00
20013;BME280;10167;42.852;23.042;2023-04-05T05:41:53;94489.88;;;1.42;100.00
20013;BME280;10167;42.852;23.042;2023-04-05T05:44:22;94487.13;;;1.50;100.00
20013;BME280;10167;42.852;23.042;2023-04-05T05:46:51;94478.13;;;1.53;100.00
20013;BME280;10167;42.852;23.042;2023-04-05T05:49:20;94490.81;;;1.62;100.00
20013;BME280;10167;42.852;23.042;2023-04-05T05:51:50;94485.97;;;1.59;100.00
20013;BME280;10167;42.852;23.042;2023-04-05T05:54:20;94484.94;;;1.54;100.00
20013;BME280;10167;42.852;23.042;2023-04-05T05:56:50;94486.66;;;1.68;100.00
20013;BME280;10167;42.852;23.042;2023-04-05T05:59:20;94487.63;;;1.67;100.00
20013;BME280;10167;42.852;23.042;2023-04-05T06:01:50;94490.19;;;1.60;100.00
20013;BME280;10167;42.852;23.042;2023-04-05T06:04:20;94502.25;;;1.61;100.00
20013;BME280;10167;42.852;23.042;2023-04-05T06:06:49;94500.69;;;1.67;100.00
20013;BME280;10167;42.852;23.042;2023-04-05T06:09:19;94499.72;;;1.74;100.00
20013;BME280;10167;42.852;23.042;2023-04-05T06:11:50;94500.28;;;1.70;100.00
20013;BME280;10167;42.852;23.042;2023-04-05T06:14:25;94501.88;;;1.64;100.00
20013;BME280;10167;42.852;23.042;2023-04-05T06:16:56;94497.50;;;1.71;100.00
20013;BME280;10167;42.852;23.042;2023-04-05T06:19:26;94498.28;;;1.72;100.00
20013;BME280;10167;42.852;23.042;2023-04-05T06:21:55;94504.69;;;1.69;100.00
20013;BME280;10167;42.852;23.042;2023-04-05T06:24:27;94499.88;;;1.66;100.00
20013;BME280;10167;42.852;23.042;2023-04-05T06:26:59;94508.47;;;1.60;100.00
20013;BME280;10167;42.852;23.042;2023-04-05T06:29:30;94505.47;;;1.63;100.00
20013;BME280;10167;42.852;23.042;2023-04-05T06:32:02;94517.75;;;1.69;100.00
20013;BME280;10167;42.852;23.042;2023-04-05T06:34:31;94507.09;;;1.64;100.00
20013;BME280;10167;42.852;23.042;2023-04-05T06:37:00;94518.06;;;1.88;100.00
20013;BME280;10167;42.852;23.042;2023-04-05T06:39:30;94513.41;;;1.83;100.00
20013;BME280;10167;42.852;23.042;2023-04-05T06:41:59;94526.81;;;1.73;100.00
20013;BME280;10167;42.852;23.042;2023-04-05T06:44:39;94519.06;;;1.87;100.00
20013;BME280;10167;42.852;23.042;2023-04-05T06:47:08;94522.50;;;1.87;100.00
20013;BME280;10167;42.852;23.042;2023-04-05T06:49:37;94527.81;;;1.72;100.00
20013;BME280;10167;42.852;23.042;2023-04-05T06:52:06;94521.69;;;1.87;100.00
20013;BME280;10167;42.852;23.042;2023-04-05T06:54:36;94532.22;;;1.72;100.00
20013;BME280;10167;42.852;23.042;2023-04-05T06:57:06;94541.09;;;1.77;100.00
20013;BME280;10167;42.852;23.042;2023-04-05T06:59:35;94549.22;;;1.89;100.00
20013;BME280;10167;42.852;23.042;2023-04-05T07:02:06;94544.56;;;1.85;100.00
20013;BME280;10167;42.852;23.042;2023-04-05T07:04:35;94560.88;;;1.93;100.00
20013;BME280;10167;42.852;23.042;2023-04-05T07:07:05;94563.75;;;2.05;100.00
20013;BME280;10167;42.852;23.042;2023-04-05T07:09:37;94573.59;;;2.03;100.00
20013;BME280;10167;42.852;23.042;2023-04-05T07:12:07;94570.13;;;1.96;100.00
20013;BME280;10167;42.852;23.042;2023-04-05T07:14:37;94574.97;;;1.99;100.00
20013;BME280;10167;42.852;23.042;2023-04-05T07:17:07;94581.22;;;2.04;100.00
20013;BME280;10167;42.852;23.042;2023-04-05T07:19:36;94574.97;;;1.99;100.00
20013;BME280;10167;42.852;23.042;2023-04-05T07:22:06;94570.56;;;1.99;100.00
20013;BME280;10167;42.852;23.042;2023-04-05T07:24:35;94574.59;;;2.02;100.00
20013;BME280;10167;42.852;23.042;2023-04-05T07:27:04;94582.72;;;2.13;100.00
20013;BME280;10167;42.852;23.042;2023-04-05T07:29:33;94580.13;;;2.20;100.00
20013;BME280;10167;42.852;23.042;2023-04-05T07:32:08;94582.47;;;2.08;100.00
20013;BME280;10167;42.852;23.042;2023-04-05T07:34:38;94585.38;;;2.27;100.00
20013;BME280;10167;42.852;23.042;2023-04-05T07:37:08;94595.97;;;2.18;100.00
20013;BME280;10167;42.852;23.042;2023-04-05T07:39:37;94596.63;;;2.27;100.00
20013;BME280;10167;42.852;23.042;2023-04-05T07:42:06;94594.97;;;2.13;100.00
20013;BME280;10167;42.852;23.042;2023-04-05T07:44:35;94593.38;;;2.18;100.00
20013;BME280;10167;42.852;23.042;2023-04-05T07:47:04;94605.06;;;2.23;100.00
20013;BME280;10167;42.852;23.042;2023-04-05T07:49:35;94601.59;;;2.15;100.00
20013;BME280;10167;42.852;23.042;2023-04-05T07:52:04;94604.09;;;2.30;100.00
20013;BME280;10167;42.852;23.042;2023-04-05T07:54:34;94602.25;;;2.24;100.00
20013;BME280;10167;42.852;23.042;2023-04-05T07:57:06;94610.31;;;2.29;100.00
20013;BME280;10167;42.852;23.042;2023-04-05T07:59:35;94620.13;;;2.21;100.00
20013;BME280;10167;42.852;23.042;2023-04-05T08:02:05;94619.91;;;2.22;100.00
20013;BME280;10167;42.852;23.042;2023-04-05T08:04:42;94614.44;;;2.17;100.00
20013;BME280;10167;42.852;23.042;2023-04-05T08:07:12;94615.84;;;2.13;100.00
20013;BME280;10167;42.852;23.042;2023-04-05T08:09:41;94612.72;;;2.24;100.00
20013;BME280;10167;42.852;23.042;2023-04-05T08:12:10;94616.59;;;2.35;100.00
20013;BME280;10167;42.852;23.042;2023-04-05T08:14:39;94617.78;;;2.32;100.00
20013;BME280;10167;42.852;23.042;2023-04-05T08:17:08;94631.28;;;2.42;100.00
20013;BME280;10167;42.852;23.042;2023-04-05T08:19:37;94620.13;;;2.27;100.00
20013;BME280;10167;42.852;23.042;2023-04-05T08:22:08;94630.28;;;2.09;100.00
20013;BME280;10167;42.852;23.042;2023-04-05T08:24:38;94631.44;;;2.34;100.00
20013;BME280;10167;42.852;23.042;2023-04-05T08:27:07;94632.72;;;2.17;100.00
20013;BME280;10167;42.852;23.042;2023-04-05T08:29:36;94625.50;;;2.12;100.00
20013;BME280;10167;42.852;23.042;2023-04-05T08:32:05;94637.78;;;2.18;100.00
20013;BME280;10167;42.852;23.042;2023-04-05T08:34:35;94632.34;;;2.13;100.00
20013;BME280;10167;42.852;23.042;2023-04-05T08:37:04;94631.09;;;2.09;100.00
20013;BME280;10167;42.852;23.042;2023-04-05T08:39:35;94635.25;;;2.04;100.00
20013;BME280;10167;42.852;23.042;2023-04-05T08:42:10;94634.06;;;2.06;100.00
20013;BME280;10167;42.852;23.042;2023-04-05T08:44:40;94633.31;;;2.12;100.00
20013;BME280;10167;42.852;23.042;2023-04-05T08:47:11;94628.75;;;2.21;100.00
20013;BME280;10167;42.852;23.042;2023-04-05T08:49:44;94638.22;;;2.22;100.00
20013;BME280;10167;42.852;23.042;2023-04-05T08:52:14;94635.66;;;2.01;100.00
20013;BME280;10167;42.852;23.042;2023-04-05T08:54:44;94629.22;;;2.03;100.00
20013;BME280;10167;42.852;23.042;2023-04-05T08:57:17;94634.88;;;2.07;100.00
20013;BME280;10167;42.852;23.042;2023-04-05T08:59:47;94631.63;;;1.98;100.00
20013;BME280;10167;42.852;23.042;2023-04-05T09:02:17;94638.13;;;2.09;100.00
20013;BME280;10167;42.852;23.042;2023-04-05T09:04:47;94643.63;;;1.93;100.00
20013;BME280;10167;42.852;23.042;2023-04-05T09:07:19;94638.28;;;2.01;100.00
20013;BME280;10167;42.852;23.042;2023-04-05T09:09:52;94643.72;;;2.06;100.00
20013;BME280;10167;42.852;23.042;2023-04-05T09:12:22;94644.97;;;2.10;100.00
20013;BME280;10167;42.852;23.042;2023-04-05T09:14:52;94641.28;;;2.32;100.00
20013;BME280;10167;42.852;23.042;2023-04-05T09:17:22;94651.81;;;2.45;100.00
20013;BME280;10167;42.852;23.042;2023-04-05T09:19:52;94657.84;;;2.46;100.00
20013;BME280;10167;42.852;23.042;2023-04-05T09:22:21;94655.25;;;2.46;100.00
20013;BME280;10167;42.852;23.042;2023-04-05T09:24:52;94657.31;;;2.57;100.00
20013;BME280;10167;42.852;23.042;2023-04-05T09:27:23;94656.50;;;2.57;100.00
20013;BME280;10167;42.852;23.042;2023-04-05T09:29:57;94656.34;;;2.71;100.00
20013;BME280;10167;42.852;23.042;2023-04-05T09:32:26;94659.13;;;2.63;100.00
20013;BME280;10167;42.852;23.042;2023-04-05T09:34:58;94658.13;;;2.58;100.00
20013;BME280;10167;42.852;23.042;2023-04-05T09:37:32;94655.81;;;2.41;100.00
20013;BME280;10167;42.852;23.042;2023-04-05T09:40:04;94656.78;;;2.40;100.00
20013;BME280;10167;42.852;23.042;2023-04-05T09:42:43;94657.66;;;2.47;100.00
20013;BME280;10167;42.852;23.042;2023-04-05T09:45:13;94661.94;;;2.27;100.00
20013;BME280;10167;42.852;23.042;2023-04-05T09:47:56;94663.03;;;2.39;100.00
20013;BME280;10167;42.852;23.042;2023-04-05T09:50:25;94664.75;;;2.26;100.00
20013;BME280;10167;42.852;23.042;2023-04-05T09:53:08;94666.44;;;2.40;100.00
20013;BME280;10167;42.852;23.042;2023-04-05T09:55:44;94662.94;;;2.26;100.00
20013;BME280;10167;42.852;23.042;2023-04-05T09:58:18;94654.72;;;2.29;100.00
20013;BME280;10167;42.852;23.042;2023-04-05T10:00:49;94662.19;;;2.32;100.00
20013;BME280;10167;42.852;23.042;2023-04-05T10:03:45;94666.16;;;2.56;100.00
20013;BME280;10167;42.852;23.042;2023-04-05T10:06:15;94665.41;;;2.69;100.00
20013;BME280;10167;42.852;23.042;2023-04-05T10:08:46;94657.75;;;2.67;100.00
20013;BME280;10167;42.852;23.042;2023-04-05T10:11:17;94654.63;;;2.50;100.00
20013;BME280;10167;42.852;23.042;2023-04-05T10:13:48;94659.13;;;2.57;100.00
20013;BME280;10167;42.852;23.042;2023-04-05T10:16:20;94666.97;;;2.63;100.00
20013;BME280;10167;42.852;23.042;2023-04-05T10:18:52;94665.34;;;2.62;100.00
20013;BME280;10167;42.852;23.042;2023-04-05T10:21:22;94653.91;;;2.63;100.00
20013;BME280;10167;42.852;23.042;2023-04-05T10:24:00;94661.63;;;2.78;100.00
20013;BME280;10167;42.852;23.042;2023-04-05T10:26:36;94661.00;;;2.76;100.00
20013;BME280;10167;42.852;23.042;2023-04-05T10:29:11;94661.63;;;2.78;100.00
20013;BME280;10167;42.852;23.042;2023-04-05T10:31:50;94654.53;;;2.72;100.00
20013;BME280;10167;42.852;23.042;2023-04-05T10:34:25;94664.13;;;3.06;100.00
20013;BME280;10167;42.852;23.042;2023-04-05T10:37:00;94658.56;;;3.15;100.00
20013;BME280;10167;42.852;23.042;2023-04-05T10:39:33;94655.50;;;3.05;100.00
20013;BME280;10167;42.852;23.042;2023-04-05T10:42:08;94657.75;;;3.15;100.00
20013;BME280;10167;42.852;23.042;2023-04-05T10:44:40;94644.91;;;3.33;100.00
20013;BME280;10167;42.852;23.042;2023-04-05T10:47:13;94658.22;;;3.51;100.00
20013;BME280;10167;42.852;23.042;2023-04-05T10:49:46;94662.84;;;3.36;100.00
20013;BME280;10167;42.852;23.042;2023-04-05T10:52:17;94664.47;;;3.44;100.00
20013;BME280;10167;42.852;23.042;2023-04-05T10:54:48;94659.66;;;3.47;100.00
20013;BME280;10167;42.852;23.042;2023-04-05T10:57:19;94659.25;;;3.57;100.00
20013;BME280;10167;42.852;23.042;2023-04-05T10:59:49;94662.69;;;3.57;100.00
20013;BME280;10167;42.852;23.042;2023-04-05T11:02:20;94669.72;;;3.63;100.00
20013;BME280;10167;42.852;23.042;2023-04-05T11:04:52;94667.53;;;3.80;100.00
20013;BME280;10167;42.852;23.042;2023-04-05T11:07:23;94665.50;;;3.76;100.00
20013;BME280;10167;42.852;23.042;2023-04-05T11:09:55;94673.78;;;3.86;100.00
20013;BME280;10167;42.852;23.042;2023-04-05T11:13:06;94676.41;;;3.79;100.00
20013;BME280;10167;42.852;23.042;2023-04-05T11:15:35;94668.13;;;3.62;100.00
20013;BME280;10167;42.852;23.042;2023-04-05T11:18:07;94671.13;;;3.46;100.00
20013;BME280;10167;42.852;23.042;2023-04-05T11:20:45;94675.38;;;3.67;100.00
20013;BME280;10167;42.852;23.042;2023-04-05T11:23:15;94667.91;;;3.57;100.00
20013;BME280;10167;42.852;23.042;2023-04-05T11:25:47;94677.78;;;3.55;100.00
20013;BME280;10167;42.852;23.042;2023-04-05T11:28:24;94670.50;;;3.38;100.00
20013;BME280;10167;42.852;23.042;2023-04-05T11:30:53;94667.44;;;3.27;100.00
20013;BME280;10167;42.852;23.042;2023-04-05T11:33:52;94680.16;;;3.37;100.00
20013;BME280;10167;42.852;23.042;2023-04-05T11:36:46;94681.06;;;3.03;100.00
20013;BME280;10167;42.852;23.042;2023-04-05T11:39:26;94674.41;;;3.07;100.00
20013;BME280;10167;42.852;23.042;2023-04-05T11:41:59;94680.88;;;3.05;100.00
20013;BME280;10167;42.852;23.042;2023-04-05T11:44:40;94675.69;;;3.24;100.00
20013;BME280;10167;42.852;23.042;2023-04-05T11:47:09;94682.34;;;3.27;100.00
20013;BME280;10167;42.852;23.042;2023-04-05T11:49:39;94676.25;;;3.13;100.00
20013;BME280;10167;42.852;23.042;2023-04-05T11:52:10;94674.41;;;3.01;100.00
20013;BME280;10167;42.852;23.042;2023-04-05T11:54:40;94673.78;;;2.92;100.00
20013;BME280;10167;42.852;23.042;2023-04-05T11:57:14;94679.69;;;2.73;100.00
20013;BME280;10167;42.852;23.042;2023-04-05T11:59:45;94676.56;;;2.90;100.00
20013;BME280;10167;42.852;23.042;2023-04-05T12:02:14;94681.75;;;2.84;100.00
20013;BME280;10167;42.852;23.042;2023-04-05T12:04:44;94689.66;;;2.97;100.00
20013;BME280;10167;42.852;23.042;2023-04-05T12:07:14;94691.72;;;3.02;100.00
20013;BME280;10167;42.852;23.042;2023-04-05T12:09:59;94692.31;;;3.04;100.00
20013;BME280;10167;42.852;23.042;2023-04-05T12:12:34;94681.44;;;3.00;100.00
20013;BME280;10167;42.852;23.042;2023-04-05T12:15:07;94691.09;;;3.06;100.00
20013;BME280;10167;42.852;23.042;2023-04-05T12:17:42;94689.16;;;3.15;100.00
20013;BME280;10167;42.852;23.042;2023-04-05T12:20:12;94683.34;;;3.33;100.00
20013;BME280;10167;42.852;23.042;2023-04-05T12:22:44;94687.34;;;3.22;100.00
20013;BME280;10167;42.852;23.042;2023-04-05T12:25:15;94678.34;;;3.38;100.00
20013;BME280;10167;42.852;23.042;2023-04-05T12:27:45;94684.59;;;3.37;100.00
20013;BME280;10167;42.852;23.042;2023-04-05T12:30:17;94684.97;;;3.40;100.00
20013;BME280;10167;42.852;23.042;2023-04-05T12:32:50;94680.56;;;3.34;100.00
20013;BME280;10167;42.852;23.042;2023-04-05T12:35:21;94683.34;;;3.33;100.00
20013;BME280;10167;42.852;23.042;2023-04-05T12:37:56;94671.28;;;3.25;100.00
20013;BME280;10167;42.852;23.042;2023-04-05T12:40:26;94673.47;;;3.15;100.00
20013;BME280;10167;42.852;23.042;2023-04-05T12:43:00;94668.63;;;3.18;100.00
20013;BME280;10167;42.852;23.042;2023-04-05T12:45:31;94679.13;;;3.25;100.00
20013;BME280;10167;42.852;23.042;2023-04-05T12:48:08;94675.88;;;3.23;100.00
20013;BME280;10167;42.852;23.042;2023-04-05T12:50:42;94677.13;;;3.40;100.00
20013;BME280;10167;42.852;23.042;2023-04-05T12:53:15;94692.19;;;3.25;100.00
20013;BME280;10167;42.852;23.042;2023-04-05T12:55:50;94678.84;;;3.07;100.00
20013;BME280;10167;42.852;23.042;2023-04-05T12:58:20;94680.38;;;2.81;100.00
20013;BME280;10167;42.852;23.042;2023-04-05T13:00:51;94683.34;;;2.78;100.00
20013;BME280;10167;42.852;23.042;2023-04-05T13:03:20;94684.34;;;2.71;100.00
20013;BME280;10167;42.852;23.042;2023-04-05T13:05:50;94678.31;;;2.77;100.00
20013;BME280;10167;42.852;23.042;2023-04-05T13:08:19;94675.25;;;2.67;100.00
20013;BME280;10167;42.852;23.042;2023-04-05T13:10:48;94677.13;;;2.79;100.00
20013;BME280;10167;42.852;23.042;2023-04-05T13:13:18;94675.97;;;2.95;100.00
20013;BME280;10167;42.852;23.042;2023-04-05T13:15:48;94680.06;;;3.11;100.00
20013;BME280;10167;42.852;23.042;2023-04-05T13:18:20;94677.22;;;3.06;100.00
20013;BME280;10167;42.852;23.042;2023-04-05T13:20:52;94691.47;;;2.97;100.00